Balcones, Texas
Current Conditions -  °F | °C
As of 9:42 PM on Saturday 22 Nov 2014 (Local Time) from KATT Reporting Station
Thunderstorm Thunderstorm  
Wind Chill: 60°   Ceiling: 3600
Heat Index: 60°   Visibility: 2.5mi
Dew Point: 60°   Wind: 0mph
Humidity: 100%   Direction: NA
Pressure: 29.82"   Gusts: NA
Location:  30.4036°N, 97.7649°W
Report Text: KATT 230342Z AUTO 00000KT 2 1/2SM TSRA BR FEW015 BKN036 OVC050 16/16 A2982 RMK AO2 VIS 1 1/2V4 PRESRR P0012 T01560156
Loading
Personal Weather Stations






























Interactive Weather Map New forecast layout! Learn more

10-Day Weather Forecast

Advertisements
Track Severe Weather on mobile